Ramirez, Texas
Current Conditions -  °F | °C
As of 10:15 AM on Tuesday 21 Oct 2014 (Local Time) from KHBV Reporting Station
Broken Clouds Broken Clouds  
Wind Chill: 74°   Ceiling: 7500
Heat Index: 74°   Visibility: 10mi
Dew Point: 67°   Wind: 12mph
Humidity: 80%   Direction: 50°NE
Pressure: 30.04"   Gusts: NA
Location:  27.5098°N, 98.639°W
Report Text: KHBV 211515Z AUTO 05010KT 10SM SCT021 SCT033 BKN075 23/19 A3004 RMK AO2 T02310194 PWINO
Loading
Personal Weather Stations






























Interactive Weather Map
Tropical Storm Tracking
New forecast layout! Learn more

10-Day Weather Forecast

Advertisements
Track Severe Weather on mobile